Barksdale Air Force Base
KBAD : now visible

Airfield :











YOU CAN JOIN US ON...

 
LOGIN :

Register | Disclaimer

   EN    FR    IT 

 









Legend :    VFR   Marginal VFR   IFR   Intensive IFR   Very Intensive IFR
Visi :
Ceiling :
>= 8 km
>= 3000ft
5 to 8 km
1000 to 3000 ft
1500m to 5 km
500 to 1000 ft
800 to 1500m
200 to 500 ft
< 800m
< 200 ft
Symbols :   Thunderstorms  Fog  Heavy snow  Heavy precipitations  Wind > 20 kt






- Airport Elevation : 166 ft


KBAD - Barksdale Air Force Base

CURRENT METAR :
  • 030756Z 00000KT 10SM CLR 23/23 A2996 RMK AO2A SLP147 $

EXPIRED METARs :
  • 030656Z 00000KT 10SM CLR 23/22 A2997 RMK AO2A SLP150 $
  • 030556Z 00000KT 10SM CLR 23/23 A2997 RMK SLP150 10291 20231 403260196 50008 $

TAF TAF KBAD
Valid from the 03 at 02:00 until the 04 at 08:00 UTC


030200Z 0302/0408 VRB03KT 9999 FEW150 QNH2990INS
BECMG 0305/0306 34008KT 9999 SCT050 QNH2991INS
BECMG 0322/0323 01003KT 9999 SKC QNH2989INS TX33/0321Z TN22/0312Z
KZFW FIR / North America



MET'MAP, your aeronautical weather chart ! - Copyright ORBIFLY December 2007 - Disclaimer

ORBIFLY MET'MAP TEAM :

Programming & Development : Alexandra Zaïnal
Concept & original design : Baudouin d'Aumeries
Assistance for programming : Marc-Olivier Méhu
Technical & hardware support : Manuel Goepfert

Contact : metmap@orbifly.com




SOURCES & CREDITS :

   NOAA       Earth
Advisory